Time;durP1;ratioP1;P1;durP2;ratioP2;P2;SDS_P1;SDS_P2;PMS_P1;PMS_P2;Temp;Humidity;BMP_temperature;BMP_pressure;BME280_temperature;BME280_humidity;BME280_pressure;Samples;Min_cycle;Max_cycle;Signal;HPM_P1;HPM_P2
2021/12/20 00:01:52;;;;;;;9.00;1.00;;;31.40;95.40;;;;;;5115420;28;20055;-80
2021/12/20 00:04:19;;;;;;;4.47;0.82;;;31.60;94.90;;;;;;5117416;27;20420;-83
2021/12/20 00:06:47;;;;;;;5.25;1.80;;;31.60;94.70;;;;;;5082534;28;20532;-80
2021/12/20 00:09:14;;;;;;;5.70;1.60;;;31.30;94.30;;;;;;5106788;28;20027;-76
2021/12/20 00:11:42;;;;;;;6.57;1.23;;;30.90;95.00;;;;;;5107781;28;20028;-79
2021/12/20 00:14:10;;;;;;;7.85;1.65;;;30.80;95.20;;;;;;5110429;28;20042;-81
2021/12/20 00:16:37;;;;;;;9.65;2.53;;;31.00;94.90;;;;;;5107066;28;20032;-79
2021/12/20 00:19:09;;;;;;;5.95;1.55;;;31.10;94.50;;;;;;5110040;28;20020;-82
2021/12/20 00:21:37;;;;;;;4.28;1.00;;;31.30;94.30;;;;;;5111764;28;20031;-82
2021/12/20 00:24:06;;;;;;;7.40;1.23;;;31.30;95.10;;;;;;5103917;28;20370;-82
2021/12/20 00:26:33;;;;;;;5.97;1.27;;;31.50;94.60;;;;;;5101166;28;20457;-82
2021/12/20 00:29:00;;;;;;;4.63;1.20;;;31.70;95.80;;;;;;5109806;28;20027;-81
2021/12/20 00:31:28;;;;;;;7.70;1.65;;;31.70;94.00;;;;;;5109620;28;20050;-80
2021/12/20 00:33:55;;;;;;;4.97;1.10;;;31.60;94.20;;;;;;5109804;28;20115;-84
2021/12/20 00:36:24;;;;;;;3.88;1.67;;;31.80;94.50;;;;;;5111554;28;20024;-82
2021/12/20 00:41:37;;;;;;;9.32;1.65;;;32.50;93.80;;;;;;5105664;27;20041;-75
2021/12/20 00:44:04;;;;;;;3.45;1.73;;;32.30;93.10;;;;;;5107218;28;20032;-74
2021/12/20 00:46:32;;;;;;;4.47;1.30;;;31.90;92.90;;;;;;5082112;28;20537;-75
2021/12/20 00:48:59;;;;;;;7.85;1.63;;;31.90;93.50;;;;;;5105025;28;20046;-74
2021/12/20 00:51:26;;;;;;;8.77;1.90;;;32.20;93.10;;;;;;5102309;28;20028;-74
2021/12/20 00:53:54;;;;;;;3.10;1.45;;;32.20;94.20;;;;;;5103272;27;20015;-74
2021/12/20 00:56:21;;;;;;;7.00;1.38;;;32.20;93.20;;;;;;5105063;28;20038;-75
2021/12/20 00:58:48;;;;;;;9.38;2.47;;;32.20;93.50;;;;;;5101523;28;20081;-76
2021/12/20 01:01:16;;;;;;;27.77;13.18;;;32.30;93.60;;;;;;5104184;27;21549;-77
2021/12/20 01:03:43;;;;;;;22.95;9.48;;;32.20;93.10;;;;;;5105304;28;20038;-77
2021/12/20 01:06:10;;;;;;;7.13;1.65;;;32.70;93.00;;;;;;5102242;28;20114;-79
2021/12/20 01:08:40;;;;;;;5.50;1.08;;;32.50;92.60;;;;;;5102341;28;20020;-79
2021/12/20 01:11:08;;;;;;;10.45;2.60;;;32.20;92.60;;;;;;5104074;28;20027;-79
2021/12/20 01:13:40;;;;;;;7.85;1.95;;;32.20;94.10;;;;;;5101066;28;20465;-78
2021/12/20 01:16:11;;;;;;;9.48;2.17;;;32.50;92.10;;;;;;5110205;28;20120;-80
2021/12/20 01:18:39;;;;;;;7.88;1.63;;;32.10;93.90;;;;;;5107002;28;20041;-78
2021/12/20 01:21:07;;;;;;;7.35;2.05;;;31.80;94.00;;;;;;5103663;28;20035;-76
2021/12/20 01:23:36;;;;;;;4.10;1.70;;;32.00;93.30;;;;;;5106995;27;20404;-77
2021/12/20 01:26:06;;;;;;;8.75;2.65;;;32.10;92.80;;;;;;5109185;28;20512;-78
2021/12/20 01:28:33;;;;;;;9.48;1.40;;;32.10;92.90;;;;;;5103604;27;20134;-79
2021/12/20 01:31:01;;;;;;;7.75;2.20;;;32.10;92.70;;;;;;5109968;28;20047;-79
2021/12/20 01:33:28;;;;;;;6.53;1.38;;;32.10;92.80;;;;;;5106890;28;20055;-77
2021/12/20 01:35:56;;;;;;;6.85;1.45;;;32.50;92.90;;;;;;5106557;27;20028;-77
2021/12/20 01:38:24;;;;;;;4.15;1.20;;;32.90;92.60;;;;;;5107077;27;20035;-78
2021/12/20 01:40:52;;;;;;;4.53;1.00;;;33.50;92.80;;;;;;5106061;28;20035;-78
2021/12/20 01:43:19;;;;;;;4.05;1.60;;;33.60;91.90;;;;;;5111362;28;20031;-80
2021/12/20 01:45:49;;;;;;;3.85;1.23;;;33.80;91.20;;;;;;5108777;28;20030;-78
2021/12/20 01:48:20;;;;;;;5.68;1.63;;;33.70;90.50;;;;;;5112479;28;20028;-78
2021/12/20 01:53:23;;;;;;;7.50;1.13;;;33.10;90.80;;;;;;5112363;28;20022;-77
2021/12/20 01:55:52;;;;;;;4.03;1.40;;;33.30;91.10;;;;;;5108358;28;20051;-78
2021/12/20 01:58:19;;;;;;;6.35;1.58;;;33.60;91.10;;;;;;5103855;28;20055;-77
2021/12/20 02:03:38;;;;;;;9.80;1.65;;;33.90;89.50;;;;;;5107991;28;20080;-80
2021/12/20 02:06:12;;;;;;;5.50;1.73;;;33.40;90.60;;;;;;5101462;28;20529;-77
2021/12/20 02:08:41;;;;;;;4.97;1.42;;;33.10;89.90;;;;;;5102716;27;20032;-78
2021/12/20 02:11:12;;;;;;;4.43;0.85;;;32.90;91.00;;;;;;5100514;27;20032;-76
2021/12/20 02:13:41;;;;;;;5.90;1.27;;;33.00;91.10;;;;;;5103681;28;20030;-77
2021/12/20 02:16:09;;;;;;;3.05;1.10;;;33.40;90.10;;;;;;5106942;28;20451;-79
2021/12/20 02:18:37;;;;;;;6.03;1.55;;;33.60;88.30;;;;;;5101965;28;20015;-80
2021/12/20 02:21:05;;;;;;;4.82;1.30;;;33.50;87.90;;;;;;5101964;28;20035;-82
2021/12/20 02:23:33;;;;;;;3.75;1.42;;;33.10;87.60;;;;;;5109083;27;20102;-78
2021/12/20 02:26:01;;;;;;;3.22;0.90;;;32.90;89.60;;;;;;5099550;27;20020;-76
2021/12/20 02:28:35;;;;;;;2.90;1.05;;;33.60;90.00;;;;;;5109687;28;20028;-78
2021/12/20 02:39:17;;;;;;;4.53;1.10;;;34.90;85.90;;;;;;5107030;28;20034;-79
2021/12/20 02:41:44;;;;;;;7.53;1.10;;;34.80;84.30;;;;;;5104089;28;20580;-78
2021/12/20 02:44:18;;;;;;;9.00;1.63;;;34.60;84.80;;;;;;5107384;28;20024;-76
2021/12/20 02:47:06;;;;;;;3.33;0.75;;;34.30;85.00;;;;;;5101288;28;20027;-79
2021/12/20 02:49:34;;;;;;;5.85;1.27;;;34.40;86.60;;;;;;5100167;28;20022;-81
2021/12/20 02:52:05;;;;;;;4.82;1.17;;;34.60;86.30;;;;;;5102738;28;20027;-77
2021/12/20 02:54:34;;;;;;;4.10;0.70;;;34.90;84.70;;;;;;5105336;28;20035;-80
2021/12/20 02:57:01;;;;;;;2.30;0.82;;;35.10;84.60;;;;;;5099718;28;20058;-80
2021/12/20 02:59:29;;;;;;;5.32;0.80;;;35.30;84.00;;;;;;5106806;28;20101;-80
2021/12/20 03:02:06;;;;;;;2.58;1.35;;;35.80;90.00;;;;;;5081133;28;20024;-76
2021/12/20 03:04:34;;;;;;;2.63;1.00;;;36.20;80.60;;;;;;5103172;27;20084;-78
2021/12/20 03:07:06;;;;;;;4.82;0.68;;;35.90;81.00;;;;;;5104450;28;20023;-80
2021/12/20 03:09:38;;;;;;;3.78;0.73;;;35.90;82.00;;;;;;5101630;28;20453;-77
2021/12/20 03:12:08;;;;;;;4.35;1.00;;;35.60;80.30;;;;;;5102658;28;20077;-78
2021/12/20 03:14:40;;;;;;;3.38;1.23;;;35.10;81.80;;;;;;5105664;28;20114;-83
2021/12/20 03:17:08;;;;;;;5.28;1.35;;;34.80;82.00;;;;;;5113002;27;20477;-77
2021/12/20 03:19:35;;;;;;;4.70;0.73;;;34.90;83.20;;;;;;5097799;28;20106;-81
2021/12/20 03:22:04;;;;;;;2.75;0.80;;;34.90;82.90;;;;;;5104757;28;20500;-80
2021/12/20 03:24:31;;;;;;;6.82;1.25;;;34.80;82.70;;;;;;5101191;28;20027;-79
2021/12/20 03:26:59;;;;;;;3.13;0.82;;;34.90;83.10;;;;;;5100277;28;20023;-78
2021/12/20 03:29:26;;;;;;;1.73;0.80;;;35.10;83.00;;;;;;5105234;28;20077;-82
2021/12/20 03:31:54;;;;;;;4.55;1.02;;;35.40;82.40;;;;;;5102566;28;20026;-81
2021/12/20 03:34:21;;;;;;;1.88;0.98;;;35.70;81.00;;;;;;5103896;28;20035;-79
2021/12/20 03:36:49;;;;;;;2.65;1.00;;;36.10;84.20;;;;;;5099594;28;20081;-79
2021/12/20 03:39:16;;;;;;;1.85;0.65;;;36.20;81.40;;;;;;5105141;28;20047;-84
2021/12/20 03:41:44;;;;;;;4.53;0.80;;;36.20;79.10;;;;;;5102544;28;20024;-81
2021/12/20 03:44:11;;;;;;;3.38;0.80;;;35.90;80.60;;;;;;5108629;28;20035;-76
2021/12/20 03:46:39;;;;;;;4.25;0.90;;;35.60;80.20;;;;;;5102303;28;20038;-77
2021/12/20 03:49:07;;;;;;;4.68;1.17;;;35.50;80.20;;;;;;5098042;28;20083;-78
2021/12/20 03:51:36;;;;;;;5.18;1.55;;;35.40;82.00;;;;;;5099842;28;20036;-79
2021/12/20 03:54:04;;;;;;;2.95;0.77;;;35.40;81.30;;;;;;5101059;28;20464;-81
2021/12/20 03:56:32;;;;;;;2.38;0.75;;;35.50;81.30;;;;;;5102097;28;20411;-77
2021/12/20 03:59:00;;;;;;;3.25;0.77;;;35.80;84.00;;;;;;5108107;28;20035;-79
2021/12/20 04:01:27;;;;;;;4.65;0.80;;;35.90;81.70;;;;;;5106881;28;20099;-82
2021/12/20 04:03:57;;;;;;;4.60;1.38;;;35.80;80.40;;;;;;5106456;28;20066;-84
2021/12/20 04:06:25;;;;;;;2.38;0.70;;;35.60;80.70;;;;;;5105787;28;20031;-80
2021/12/20 04:08:52;;;;;;;4.47;0.77;;;35.30;81.50;;;;;;5108047;28;20359;-81
2021/12/20 04:11:20;;;;;;;2.95;0.60;;;35.10;81.90;;;;;;5100567;28;20026;-80
2021/12/20 04:13:47;;;;;;;2.67;0.70;;;35.10;82.30;;;;;;5099337;28;20047;-78
2021/12/20 04:16:15;;;;;;;3.00;0.90;;;35.10;82.60;;;;;;5101776;28;20546;-80
2021/12/20 04:18:42;;;;;;;1.77;0.82;;;35.10;82.00;;;;;;5101886;28;20027;-81
2021/12/20 04:21:11;;;;;;;9.55;1.33;;;35.00;81.30;;;;;;5106870;28;20055;-78
2021/12/20 04:23:38;;;;;;;4.95;1.35;;;34.80;82.10;;;;;;5104479;28;20024;-79
2021/12/20 04:26:06;;;;;;;4.63;1.15;;;34.80;81.50;;;;;;5100254;28;20326;-77
2021/12/20 04:28:33;;;;;;;3.78;0.93;;;34.80;83.00;;;;;;5100129;28;20028;-79
2021/12/20 04:31:01;;;;;;;2.38;0.60;;;35.10;82.30;;;;;;5102729;28;20020;-79
2021/12/20 04:33:28;;;;;;;2.83;0.70;;;35.60;83.70;;;;;;5102668;28;20086;-81
2021/12/20 04:35:56;;;;;;;4.88;0.70;;;35.90;82.30;;;;;;5103668;27;20030;-81
2021/12/20 04:38:26;;;;;;;1.45;0.68;;;35.70;80.20;;;;;;5073230;28;20077;-82
2021/12/20 04:40:53;;;;;;;5.50;0.88;;;35.90;80.70;;;;;;5091386;28;20388;-82
2021/12/20 04:43:21;;;;;;;2.13;0.77;;;36.10;80.20;;;;;;5108267;28;20026;-86
2021/12/20 04:45:48;;;;;;;1.77;0.70;;;36.00;80.20;;;;;;5110089;27;20030;-85
2021/12/20 04:48:16;;;;;;;3.33;0.60;;;36.10;79.70;;;;;;5114329;28;20031;-81
2021/12/20 04:50:43;;;;;;;1.23;0.75;;;36.10;80.90;;;;;;5104843;28;20039;-85
2021/12/20 04:53:10;;;;;;;1.35;0.60;;;36.20;79.10;;;;;;5108445;28;20541;-83
2021/12/20 04:55:38;;;;;;;3.00;0.90;;;36.00;80.50;;;;;;5104069;27;20039;-80
2021/12/20 04:58:07;;;;;;;3.05;0.80;;;35.80;79.40;;;;;;5106810;28;20092;-80
2021/12/20 05:00:36;;;;;;;2.88;0.57;;;35.70;79.90;;;;;;5108096;28;20027;-78
2021/12/20 05:03:04;;;;;;;0.77;0.52;;;35.90;79.50;;;;;;5107470;28;20077;-80
2021/12/20 05:05:32;;;;;;;1.58;0.50;;;36.00;80.50;;;;;;5106523;28;20396;-77
2021/12/20 05:08:00;;;;;;;2.13;0.80;;;35.90;79.40;;;;;;5103686;27;20051;-80
2021/12/20 05:10:31;;;;;;;3.38;0.90;;;35.80;80.10;;;;;;5108077;28;20016;-79
2021/12/20 05:13:04;;;;;;;1.23;0.68;;;35.90;79.50;;;;;;5102883;28;20119;-78
2021/12/20 05:15:33;;;;;;;2.90;0.60;;;35.90;79.50;;;;;;5101788;27;20055;-78
2021/12/20 05:18:00;;;;;;;3.58;0.90;;;35.70;78.90;;;;;;5104572;28;20024;-77
2021/12/20 05:20:28;;;;;;;4.07;0.90;;;35.60;79.80;;;;;;5098507;28;20051;-77
2021/12/20 05:22:57;;;;;;;6.68;0.93;;;35.70;80.90;;;;;;5113789;28;20031;-83
2021/12/20 05:25:26;;;;;;;2.45;0.80;;;35.70;78.80;;;;;;5110293;28;20026;-81
2021/12/20 05:27:54;;;;;;;3.05;0.50;;;35.30;79.70;;;;;;5113414;28;20043;-76
2021/12/20 05:30:21;;;;;;;1.95;1.20;;;35.30;80.60;;;;;;5112715;28;20024;-76
2021/12/20 05:32:49;;;;;;;1.30;0.68;;;35.30;80.10;;;;;;5110088;28;20066;-77
2021/12/20 05:35:19;;;;;;;1.35;0.93;;;35.30;81.10;;;;;;5101621;27;20440;-78
2021/12/20 05:37:46;;;;;;;1.92;0.90;;;35.30;79.60;;;;;;5100832;27;20711;-80
2021/12/20 05:40:14;;;;;;;6.93;1.55;;;35.20;79.80;;;;;;5102823;27;20087;-78
2021/12/20 05:42:42;;;;;;;2.17;0.70;;;35.20;80.00;;;;;;5103720;27;20035;-82
2021/12/20 05:45:10;;;;;;;3.83;0.85;;;35.40;79.80;;;;;;5105575;28;20435;-81
2021/12/20 05:47:38;;;;;;;1.20;0.60;;;35.40;79.90;;;;;;5100720;28;20046;-80
2021/12/20 05:50:09;;;;;;;4.45;1.15;;;35.40;78.70;;;;;;5101115;28;20027;-81
2021/12/20 05:52:37;;;;;;;1.55;0.80;;;35.30;78.40;;;;;;5103831;28;20160;-82
2021/12/20 05:55:07;;;;;;;2.42;0.80;;;35.00;79.00;;;;;;5104544;27;20482;-77
2021/12/20 05:57:35;;;;;;;3.63;0.73;;;35.20;79.70;;;;;;5101838;28;20034;-80
2021/12/20 06:00:05;;;;;;;1.65;0.70;;;35.30;79.10;;;;;;5105416;28;20023;-77
2021/12/20 06:02:32;;;;;;;1.77;0.90;;;35.40;78.60;;;;;;5101272;28;20047;-77
2021/12/20 06:04:59;;;;;;;2.13;0.90;;;35.40;77.80;;;;;;5102526;28;20062;-80
2021/12/20 06:07:28;;;;;;;5.53;0.75;;;35.40;78.10;;;;;;5107997;28;20084;-86
2021/12/20 06:09:55;;;;;;;0.75;0.60;;;35.30;77.50;;;;;;5105173;27;20195;-87
2021/12/20 06:12:23;;;;;;;2.00;0.93;;;35.30;78.30;;;;;;5103133;27;20028;-83
2021/12/20 06:14:50;;;;;;;3.20;0.52;;;35.40;77.30;;;;;;5109828;28;20495;-79
2021/12/20 06:17:17;;;;;;;1.75;0.70;;;35.40;77.60;;;;;;5111813;28;20027;-79
2021/12/20 06:19:45;;;;;;;1.58;0.60;;;35.50;78.70;;;;;;5105464;27;20023;-81
2021/12/20 06:22:12;;;;;;;1.75;0.80;;;35.50;77.20;;;;;;5109145;28;20109;-76
2021/12/20 06:24:40;;;;;;;2.80;1.08;;;35.40;77.60;;;;;;5105513;28;20040;-82
2021/12/20 06:27:07;;;;;;;4.22;0.73;;;35.20;83.60;;;;;;5104967;28;20114;-82
2021/12/20 06:29:35;;;;;;;5.82;1.92;;;35.20;85.60;;;;;;5105689;28;20057;-78
2021/12/20 06:32:03;;;;;;;2.58;1.10;;;35.00;86.40;;;;;;5106464;28;20027;-85
2021/12/20 06:34:30;;;;;;;5.72;1.02;;;34.80;86.50;;;;;;5108186;28;20058;-78
2021/12/20 06:36:58;;;;;;;7.03;0.90;;;34.50;87.30;;;;;;5102928;28;20093;-80
2021/12/20 06:39:25;;;;;;;5.78;1.40;;;34.30;88.20;;;;;;5103943;27;20071;-83
2021/12/20 06:41:52;;;;;;;9.63;1.98;;;34.20;88.20;;;;;;5103205;28;20031;-81
2021/12/20 06:44:20;;;;;;;3.45;1.05;;;34.00;90.00;;;;;;5103868;28;20401;-82
2021/12/20 06:46:47;;;;;;;5.28;1.10;;;33.90;89.80;;;;;;5105996;28;20038;-78
2021/12/20 06:49:15;;;;;;;6.18;1.13;;;33.80;90.00;;;;;;5104046;27;20038;-80
2021/12/20 06:51:43;;;;;;;8.20;1.45;;;33.60;90.10;;;;;;5103694;28;20034;-82
2021/12/20 06:54:13;;;;;;;5.15;1.40;;;33.30;90.40;;;;;;5107620;28;20039;-80
2021/12/20 06:56:41;;;;;;;4.90;1.10;;;33.10;90.50;;;;;;5101466;28;20055;-78
2021/12/20 06:59:08;;;;;;;4.65;1.17;;;33.10;90.80;;;;;;5102054;28;20039;-78
2021/12/20 07:01:36;;;;;;;5.78;2.15;;;33.10;91.00;;;;;;5105286;28;22531;-78
2021/12/20 07:04:04;;;;;;;8.52;3.65;;;33.00;91.10;;;;;;5105483;28;20070;-82
2021/12/20 07:06:31;;;;;;;5.50;0.90;;;33.00;90.90;;;;;;5105527;28;20358;-78
2021/12/20 07:08:59;;;;;;;5.70;1.30;;;32.90;91.20;;;;;;5103455;28;20028;-83
2021/12/20 07:11:26;;;;;;;3.67;1.33;;;32.80;91.00;;;;;;5105313;28;20051;-81
2021/12/20 07:13:54;;;;;;;4.50;0.80;;;32.70;91.90;;;;;;5103165;28;20047;-78
2021/12/20 07:16:22;;;;;;;6.43;1.50;;;32.70;91.60;;;;;;5104413;28;20039;-81
2021/12/20 07:18:50;;;;;;;6.93;1.58;;;32.50;91.80;;;;;;5101884;28;20024;-77
2021/12/20 07:21:19;;;;;;;4.78;1.65;;;32.50;92.20;;;;;;5107781;28;20529;-80
2021/12/20 07:23:46;;;;;;;6.35;0.75;;;32.40;92.10;;;;;;5105031;28;20034;-77
2021/12/20 07:26:14;;;;;;;4.35;1.10;;;32.40;92.20;;;;;;5104713;27;20156;-78
2021/12/20 07:28:45;;;;;;;7.97;1.63;;;32.30;92.20;;;;;;5107016;28;20032;-81
2021/12/20 07:31:13;;;;;;;5.97;1.25;;;32.20;92.60;;;;;;5108104;28;20358;-82
2021/12/20 07:33:42;;;;;;;3.88;1.33;;;32.20;92.60;;;;;;5103024;28;20473;-79
2021/12/20 07:36:14;;;;;;;5.55;1.00;;;32.20;92.50;;;;;;5107682;28;20043;-80
2021/12/20 07:38:41;;;;;;;4.53;0.85;;;32.10;93.10;;;;;;5103429;28;20032;-80
2021/12/20 07:41:08;;;;;;;5.00;1.25;;;32.00;92.70;;;;;;5102634;28;20378;-77
2021/12/20 07:43:36;;;;;;;4.40;1.02;;;31.90;92.80;;;;;;5105499;28;20027;-78
2021/12/20 07:46:03;;;;;;;4.97;1.05;;;31.90;92.80;;;;;;5101813;28;20023;-76
2021/12/20 07:48:30;;;;;;;4.07;1.38;;;31.70;92.60;;;;;;5101008;28;20813;-77
2021/12/20 07:50:59;;;;;;;7.47;1.23;;;31.60;92.60;;;;;;5099196;28;20027;-77
2021/12/20 07:53:27;;;;;;;6.63;1.48;;;31.40;92.60;;;;;;5102770;28;20123;-78
2021/12/20 07:55:54;;;;;;;2.78;1.15;;;31.40;92.70;;;;;;5103123;28;20027;-76
2021/12/20 07:58:21;;;;;;;2.80;1.10;;;31.30;92.80;;;;;;5100163;28;20059;-77
2021/12/20 08:00:49;;;;;;;2.50;0.88;;;31.40;92.70;;;;;;5102856;28;20474;-79
2021/12/20 08:03:18;;;;;;;2.50;0.70;;;31.30;92.80;;;;;;5103927;28;20076;-78
2021/12/20 08:05:46;;;;;;;3.40;0.75;;;31.20;92.90;;;;;;5099561;28;20116;-77
2021/12/20 08:08:13;;;;;;;5.88;1.15;;;31.00;93.10;;;;;;5107993;28;20035;-79
2021/12/20 08:10:41;;;;;;;2.42;1.10;;;31.00;93.10;;;;;;5108283;28;20962;-79
2021/12/20 08:13:10;;;;;;;4.78;0.65;;;31.00;93.10;;;;;;5106345;28;20023;-77
2021/12/20 08:15:37;;;;;;;3.10;0.80;;;30.80;93.20;;;;;;5100261;28;20039;-79
2021/12/20 08:18:06;;;;;;;3.67;1.15;;;30.80;93.30;;;;;;5102364;28;20020;-78
2021/12/20 08:20:34;;;;;;;3.40;0.80;;;30.70;93.50;;;;;;5100853;28;20732;-78
2021/12/20 08:23:04;;;;;;;8.15;0.88;;;30.60;93.90;;;;;;5101373;27;20023;-79
2021/12/20 08:25:32;;;;;;;2.55;0.65;;;30.50;93.80;;;;;;5106136;28;20027;-78
2021/12/20 08:27:59;;;;;;;3.10;0.70;;;30.40;93.80;;;;;;5108523;28;20031;-79
2021/12/20 08:30:26;;;;;;;3.25;1.73;;;30.40;93.90;;;;;;5105068;27;20106;-77
2021/12/20 08:32:54;;;;;;;2.00;0.70;;;30.30;93.80;;;;;;5111986;28;20023;-79
2021/12/20 08:35:21;;;;;;;2.88;1.05;;;30.30;94.10;;;;;;5108090;27;20036;-78
2021/12/20 08:37:50;;;;;;;3.38;0.93;;;30.10;94.20;;;;;;5104292;28;20040;-79
2021/12/20 08:40:18;;;;;;;5.22;0.95;;;30.10;94.30;;;;;;5108631;28;20148;-77
2021/12/20 08:42:46;;;;;;;7.20;0.88;;;29.90;94.50;;;;;;5102431;28;20027;-77
2021/12/20 08:45:15;;;;;;;3.65;0.90;;;29.90;94.60;;;;;;5107978;27;20038;-78
2021/12/20 08:47:43;;;;;;;2.75;1.90;;;29.90;94.70;;;;;;5109368;28;20084;-76
2021/12/20 08:50:16;;;;;;;4.82;1.00;;;29.80;94.90;;;;;;5111117;28;20047;-80
2021/12/20 08:52:44;;;;;;;4.25;1.10;;;29.80;94.90;;;;;;5110182;28;20085;-80
2021/12/20 08:55:12;;;;;;;5.93;0.95;;;29.80;95.00;;;;;;5107761;28;20035;-79
2021/12/20 08:57:40;;;;;;;2.92;0.90;;;29.80;95.20;;;;;;5103564;27;20131;-75
2021/12/20 09:00:10;;;;;;;2.50;0.98;;;29.70;95.50;;;;;;5114399;28;20879;-79
2021/12/20 09:02:37;;;;;;;4.00;0.68;;;29.60;95.40;;;;;;5108394;28;20019;-80
2021/12/20 09:05:06;;;;;;;3.65;0.77;;;29.70;95.70;;;;;;5112267;28;20031;-79
2021/12/20 09:07:33;;;;;;;4.25;0.93;;;29.60;95.90;;;;;;5104375;27;20024;-77
2021/12/20 09:10:01;;;;;;;3.88;1.27;;;29.50;96.20;;;;;;5108222;28;20059;-75
2021/12/20 09:12:28;;;;;;;4.13;1.13;;;29.40;96.60;;;;;;5089486;28;20571;-77
2021/12/20 09:14:56;;;;;;;6.78;1.25;;;29.30;96.80;;;;;;5108242;28;20092;-81
2021/12/20 09:17:23;;;;;;;5.32;1.20;;;29.10;97.30;;;;;;5111653;28;20397;-79
2021/12/20 09:19:51;;;;;;;4.50;1.05;;;28.90;97.90;;;;;;5104437;28;20031;-80
2021/12/20 09:22:19;;;;;;;8.93;1.73;;;28.60;98.40;;;;;;5109017;28;20502;-79
2021/12/20 09:24:46;;;;;;;3.83;0.90;;;28.50;99.00;;;;;;5111669;28;20118;-80
2021/12/20 09:27:14;;;;;;;4.00;1.20;;;28.40;99.50;;;;;;5106088;28;20072;-79
2021/12/20 09:29:41;;;;;;;5.75;1.35;;;28.20;99.90;;;;;;5112548;28;20496;-79
2021/12/20 09:32:09;;;;;;;7.65;1.38;;;28.10;99.90;;;;;;5105316;28;20034;-79
2021/12/20 09:34:37;;;;;;;3.97;0.82;;;28.00;99.90;;;;;;5110803;28;20036;-78
2021/12/20 09:37:07;;;;;;;2.97;1.35;;;27.90;99.90;;;;;;5109112;28;20023;-77
2021/12/20 09:39:38;;;;;;;8.05;1.40;;;27.80;99.90;;;;;;5113842;28;20044;-79
2021/12/20 09:42:09;;;;;;;3.40;1.20;;;27.80;99.90;;;;;;5112982;28;20106;-79
2021/12/20 09:44:37;;;;;;;2.85;0.73;;;27.70;99.90;;;;;;5118636;28;20061;-77
2021/12/20 09:47:04;;;;;;;3.95;0.98;;;27.70;99.90;;;;;;5119142;28;20351;-79
2021/12/20 09:49:33;;;;;;;6.65;1.45;;;27.60;99.90;;;;;;5116926;28;20496;-79
2021/12/20 09:52:01;;;;;;;5.45;1.10;;;27.60;99.90;;;;;;5111983;28;20429;-80
2021/12/20 09:54:29;;;;;;;10.27;1.73;;;27.50;99.90;;;;;;5109218;28;20546;-81
2021/12/20 09:56:59;;;;;;;6.13;1.55;;;27.40;99.90;;;;;;5113066;28;20414;-79
2021/12/20 09:59:28;;;;;;;6.38;1.17;;;27.40;99.90;;;;;;5114800;28;20469;-80
2021/12/20 10:01:58;;;;;;;6.65;2.03;;;27.30;99.90;;;;;;5111424;28;20038;-79
2021/12/20 10:04:26;;;;;;;6.20;2.08;;;27.30;99.90;;;;;;5112470;28;20537;-79
2021/12/20 10:07:00;;;;;;;4.70;1.67;;;27.10;99.90;;;;;;5111260;28;20031;-80
2021/12/20 10:09:34;;;;;;;8.60;1.90;;;26.90;99.90;;;;;;5090537;28;20024;-80
2021/12/20 10:12:12;;;;;;;8.57;1.88;;;26.90;99.90;;;;;;5106424;28;20028;-79
2021/12/20 10:14:58;;;;;;;12.25;3.15;;;26.90;99.90;;;;;;5112950;28;20050;-80
2021/12/20 10:17:28;;;;;;;7.88;1.80;;;26.80;99.90;;;;;;5110690;28;20031;-78
2021/12/20 10:19:56;;;;;;;6.07;1.02;;;26.80;99.90;;;;;;5112565;28;20028;-79
2021/12/20 10:22:28;;;;;;;4.70;1.10;;;26.80;99.90;;;;;;5102015;28;20095;-79
2021/12/20 10:24:58;;;;;;;5.00;1.52;;;26.70;99.90;;;;;;5094618;28;20027;-80
2021/12/20 10:27:34;;;;;;;4.40;1.25;;;26.60;99.90;;;;;;5109964;28;20023;-81
2021/12/20 10:30:42;;;;;;;7.35;1.52;;;26.60;99.90;;;;;;5095328;28;20035;-80
2021/12/20 10:33:22;;;;;;;6.05;1.42;;;26.50;99.90;;;;;;5091920;28;20046;-79
2021/12/20 10:35:54;;;;;;;6.93;1.30;;;26.40;99.90;;;;;;5103484;28;20043;-80
2021/12/20 10:38:37;;;;;;;5.25;1.50;;;26.30;99.90;;;;;;5112314;28;20028;-82
2021/12/20 10:41:34;;;;;;;4.75;1.77;;;26.20;99.90;;;;;;5110913;28;20509;-79
2021/12/20 10:44:14;;;;;;;5.65;1.63;;;26.20;99.90;;;;;;5109707;28;20028;-79
2021/12/20 10:46:47;;;;;;;5.50;2.28;;;26.10;99.90;;;;;;5111216;28;20299;-79
2021/12/20 10:49:15;;;;;;;7.03;1.23;;;26.10;99.90;;;;;;5110455;28;20477;-80
2021/12/20 10:51:49;;;;;;;4.40;1.10;;;26.10;99.90;;;;;;5111894;28;20366;-80
2021/12/20 10:54:22;;;;;;;10.80;1.75;;;26.10;99.90;;;;;;5092961;28;20032;-80
2021/12/20 10:56:57;;;;;;;10.25;2.15;;;26.00;99.90;;;;;;5108596;28;20023;-79
2021/12/20 10:59:25;;;;;;;;;;;26.00;99.90;;;;;;5113758;28;20047;-79
2021/12/20 11:04:25;;;;;;;9.60;2.67;;;25.90;99.90;;;;;;5112483;28;20482;-79
2021/12/20 11:09:40;;;;;;;3.70;1.90;;;25.80;99.90;;;;;;5111586;28;20055;-78
2021/12/20 11:12:33;;;;;;;6.35;1.85;;;25.80;99.90;;;;;;5110797;28;20032;-80
2021/12/20 11:15:11;;;;;;;6.45;1.92;;;25.80;99.90;;;;;;5111294;28;20047;-80
2021/12/20 11:17:45;;;;;;;7.55;2.35;;;25.70;99.90;;;;;;5106913;28;20722;-80
2021/12/20 11:20:19;;;;;;;3.38;1.48;;;25.60;99.90;;;;;;5112968;28;20027;-81
2021/12/20 11:22:46;;;;;;;9.90;2.30;;;25.60;99.90;;;;;;5111580;28;20374;-80
2021/12/20 11:25:15;;;;;;;7.10;1.73;;;25.60;99.90;;;;;;5111949;28;20043;-80
2021/12/20 11:27:46;;;;;;;5.18;1.65;;;25.50;99.90;;;;;;5106988;28;20056;-79
2021/12/20 11:30:22;;;;;;;6.30;1.70;;;25.50;99.90;;;;;;5110515;28;20031;-77
2021/12/20 11:32:51;;;;;;;3.45;1.50;;;25.50;99.90;;;;;;5109178;28;20027;-79
2021/12/20 11:35:22;;;;;;;13.25;2.17;;;25.50;99.90;;;;;;5111464;28;20031;-78
2021/12/20 11:37:49;;;;;;;4.75;1.48;;;25.50;99.90;;;;;;5102518;28;20101;-79
2021/12/20 11:40:20;;;;;;;2.97;1.27;;;25.40;99.90;;;;;;5111632;28;20044;-79
2021/12/20 11:42:50;;;;;;;11.82;2.97;;;25.50;99.90;;;;;;5109397;28;20028;-79
2021/12/20 11:45:18;;;;;;;5.75;2.78;;;25.30;99.90;;;;;;5112356;28;20070;-80
2021/12/20 11:47:59;;;;;;;4.43;2.05;;;25.30;99.90;;;;;;5109998;28;20531;-76
2021/12/20 11:50:39;;;;;;;7.07;2.42;;;25.30;99.90;;;;;;5095002;28;20034;-78
2021/12/20 11:53:09;;;;;;;7.50;2.80;;;25.30;99.90;;;;;;5111139;28;20038;-78
2021/12/20 11:55:39;;;;;;;6.80;2.50;;;25.20;99.90;;;;;;5103337;28;20035;-80
2021/12/20 11:58:17;;;;;;;7.80;2.10;;;25.20;99.90;;;;;;5108017;28;20016;-76
2021/12/20 12:00:56;;;;;;;5.57;1.95;;;25.20;99.90;;;;;;5097668;28;20031;-78
2021/12/20 12:03:27;;;;;;;8.90;2.28;;;25.20;99.90;;;;;;5107003;28;20030;-79
2021/12/20 12:06:10;;;;;;;8.82;2.17;;;25.20;99.90;;;;;;5109798;28;20024;-79
2021/12/20 12:08:54;;;;;;;8.95;2.47;;;25.20;99.90;;;;;;5100597;28;20047;-81
2021/12/20 12:11:24;;;;;;;7.95;2.20;;;25.20;99.90;;;;;;5098278;28;20716;-79
2021/12/20 12:14:03;;;;;;;8.73;2.72;;;25.10;99.90;;;;;;5111327;28;20023;-80
2021/12/20 12:17:01;;;;;;;9.65;2.30;;;25.00;99.90;;;;;;5101109;28;20085;-78
2021/12/20 12:19:53;;;;;;;9.85;1.52;;;24.90;99.90;;;;;;5100010;28;20024;-79
2021/12/20 12:22:40;;;;;;;8.95;2.15;;;24.90;99.90;;;;;;5104086;28;20401;-77
2021/12/20 12:25:39;;;;;;;9.52;2.25;;;25.00;99.90;;;;;;5108145;28;20138;-78
2021/12/20 12:28:07;;;;;;;4.72;1.67;;;24.90;99.90;;;;;;5108828;28;20046;-79
2021/12/20 12:30:36;;;;;;;8.60;2.70;;;24.90;99.90;;;;;;5101257;28;20023;-80
2021/12/20 12:33:03;;;;;;;10.70;2.33;;;24.80;99.90;;;;;;5098903;28;20050;-79
2021/12/20 12:35:41;;;;;;;5.50;2.13;;;24.80;99.90;;;;;;5100858;28;20050;-77
2021/12/20 12:38:16;;;;;;;5.78;2.10;;;24.70;99.90;;;;;;5101940;28;20023;-79
2021/12/20 12:40:49;;;;;;;8.50;2.60;;;24.70;99.90;;;;;;5098009;28;20093;-79
2021/12/20 12:43:26;;;;;;;7.65;2.03;;;24.70;99.90;;;;;;5103070;28;20027;-77
2021/12/20 12:45:56;;;;;;;9.82;2.10;;;24.70;99.90;;;;;;5101830;28;20041;-78
2021/12/20 12:48:40;;;;;;;11.05;1.73;;;24.60;99.90;;;;;;5106623;28;20115;-79
2021/12/20 12:51:29;;;;;;;6.40;2.08;;;24.50;99.90;;;;;;5106830;28;20042;-77
2021/12/20 12:53:57;;;;;;;8.70;2.63;;;24.50;99.90;;;;;;5101940;28;20026;-78
2021/12/20 12:56:27;;;;;;;6.30;2.35;;;24.50;99.90;;;;;;5110552;28;20103;-78
2021/12/20 12:59:14;;;;;;;8.60;1.73;;;24.50;99.90;;;;;;5096557;28;20032;-77
2021/12/20 13:02:13;;;;;;;8.07;2.72;;;24.50;99.90;;;;;;5112150;28;20051;-79
2021/12/20 13:04:47;;;;;;;3.35;1.80;;;24.50;99.90;;;;;;5094065;28;20393;-79
2021/12/20 13:07:30;;;;;;;11.60;2.63;;;24.40;99.90;;;;;;5109271;28;20469;-77
2021/12/20 13:10:01;;;;;;;8.68;2.00;;;24.40;99.90;;;;;;5112746;28;20392;-77
2021/12/20 13:12:38;;;;;;;5.28;3.00;;;24.30;99.90;;;;;;5092358;28;20028;-77
2021/12/20 13:15:33;;;;;;;6.95;2.20;;;24.30;99.90;;;;;;5096594;28;20074;-78
2021/12/20 13:18:12;;;;;;;5.78;2.10;;;24.30;99.90;;;;;;5111984;28;20046;-79
2021/12/20 13:20:49;;;;;;;11.90;3.03;;;24.20;99.90;;;;;;5112741;28;20539;-79
2021/12/20 13:23:33;;;;;;;7.55;2.30;;;24.20;99.90;;;;;;5112841;28;20031;-77